createdAt,value
2022-08-10T00:01:17.383Z,20.786038694206308
2022-08-10T00:04:21.463Z,20.77383401739062
2022-08-10T00:07:17.307Z,20.770622260606707
2022-08-10T00:11:16.778Z,20.70510244703046
2022-08-10T00:14:17.747Z,20.716664763635436
2022-08-10T00:17:16.391Z,20.637655629533402
2022-08-10T00:21:21.425Z,20.66977315542208
2022-08-10T00:24:22.928Z,20.696751885954292
2022-08-10T00:28:01.679Z,20.64600618517079
2022-08-10T00:31:16.666Z,20.58755231184805
2022-08-10T00:34:16.920Z,20.570851212101115
2022-08-10T00:37:18.576Z,20.581771161587767
2022-08-10T00:41:16.659Z,20.59526051276807
2022-08-10T00:44:17.242Z,20.605538115013406
2022-08-10T00:47:35.920Z,20.5682818124129
2022-08-10T00:51:16.717Z,20.56763946250221
2022-08-10T00:54:23.984Z,20.588194661899706
2022-08-10T00:57:18.741Z,20.57213591197251
2022-08-10T01:02:11.098Z,20.547084267761328
2022-08-10T01:04:58.872Z,20.489272807518226
2022-08-10T01:07:27.387Z,20.528456126549646
2022-08-10T01:12:38.894Z,20.482849314209396
2022-08-10T01:14:25.803Z,20.462936487841944
2022-08-10T01:17:21.506Z,20.426322592700398
2022-08-10T01:22:05.908Z,20.356306588746158
2022-08-10T01:24:38.059Z,20.369795906407035
2022-08-10T01:27:27.369Z,20.335109093616573
2022-08-10T01:31:22.248Z,20.37429234607298
2022-08-10T01:34:23.294Z,20.279867159881633
2022-08-10T01:37:22.350Z,20.27858246414844
2022-08-10T01:41:21.727Z,20.248392119654817
2022-08-10T01:44:24.225Z,20.221413522436343
2022-08-10T01:51:21.211Z,20.19443493323961
2022-08-10T01:54:20.723Z,20.18544207195664
2022-08-10T01:57:17.811Z,20.143047166485122
2022-08-10T02:01:22.256Z,20.084593617183508
2022-08-10T02:04:19.960Z,20.07817015252376
2022-08-10T02:07:21.337Z,20.065965570923073
2022-08-10T02:11:17.467Z,20.039629374114973
2022-08-10T02:14:18.313Z,19.949700954825765
2022-08-10T02:17:57.089Z,19.981175891438397
2022-08-10T02:21:16.381Z,19.952270336997117
2022-08-10T02:24:17.627Z,19.948416263767378
2022-08-10T02:27:18.155Z,19.87326186850878
2022-08-10T02:31:22.317Z,19.88097000874732
2022-08-10T02:34:18.509Z,19.850137451722183
2022-08-10T02:37:19.278Z,19.781406581063585
2022-08-10T02:45:02.363Z,19.837932900794204
2022-08-10T02:47:24.544Z,19.789114713498655
2022-08-10T02:52:06.855Z,19.84178696933095
2022-08-10T02:54:21.905Z,19.800676913379085
2022-08-10T02:57:21.171Z,19.816093182178246
2022-08-10T03:01:22.364Z,19.824443662204793
2022-08-10T03:04:56.043Z,19.740938896522856
2022-08-10T03:07:44.696Z,19.78397595846918
2022-08-10T03:12:35.506Z,19.799392224430722
2022-08-10T03:14:19.331Z,19.776267826470665
2022-08-10T03:17:19.088Z,19.73901186437588
2022-08-10T03:21:18.748Z,19.717172169570496
2022-08-10T03:24:30.450Z,19.728734360283216
2022-08-10T03:27:17.303Z,19.670923421453427
2022-08-10T03:31:17.305Z,19.73387311218403
2022-08-10T03:34:22.094Z,19.734515456192092
2022-08-10T03:37:17.400Z,19.731946080187118
2022-08-10T03:41:20.922Z,19.837932900794204
2022-08-10T03:44:20.641Z,19.807100358393747
2022-08-10T03:47:20.287Z,19.80966973652694
2022-08-10T03:51:17.817Z,19.893174565464232
2022-08-10T03:54:18.480Z,19.853349175923448
2022-08-10T03:57:17.616Z,19.86683841881022
2022-08-10T04:01:18.020Z,19.89831332667827
2022-08-10T04:04:23.265Z,19.878400628595045
2022-08-10T04:07:17.540Z,19.906663814271816
2022-08-10T04:11:16.666Z,19.988241695035775
2022-08-10T04:14:38.190Z,19.945204536200983
2022-08-10T04:17:16.874Z,19.96961366855685
2022-08-10T04:21:21.354Z,19.992738115793326
2022-08-10T04:24:27.000Z,20.04733752848706
2022-08-10T04:27:17.030Z,20.047979874714294
2022-08-10T04:31:21.652Z,20.069819649145938
2022-08-10T04:34:22.448Z,20.11478390717566
2022-08-10T04:37:21.479Z,20.11799564074472
2022-08-10T04:41:16.767Z,20.148185941850898
2022-08-10T04:44:16.548Z,20.149470635737817
2022-08-10T04:47:16.744Z,20.16424461674478
2022-08-10T04:51:18.715Z,20.137908391410384
2022-08-10T04:54:16.287Z,20.150755329642926
2022-08-10T04:57:16.241Z,20.16231757560745
2022-08-10T05:01:18.919Z,20.163602269694458
2022-08-10T05:04:37.816Z,20.229121692251645
2022-08-10T05:07:18.384Z,20.25866968260998
2022-08-10T05:11:24.020Z,20.31391160343919
2022-08-10T05:14:16.523Z,20.34538666639428
2022-08-10T05:17:16.447Z,20.38392757467891
2022-08-10T05:21:53.810Z,20.43595782683151
2022-08-10T05:24:16.686Z,20.45715534552155
2022-08-10T05:27:16.568Z,20.482849314209396
2022-08-10T05:31:18.938Z,20.47899521844238
2022-08-10T05:34:20.622Z,20.528456126549646
2022-08-10T05:38:11.628Z,20.559931263928682
2022-08-10T05:41:16.778Z,20.60168401403498
2022-08-10T05:44:16.876Z,20.63829797993976
2022-08-10T05:47:17.715Z,20.64600618517079
2022-08-10T05:51:17.247Z,20.721803571488362
2022-08-10T05:54:17.080Z,20.761629342216565
2022-08-10T05:57:19.436Z,20.84449269539946
2022-08-10T06:01:25.916Z,20.896523211655676
2022-08-10T06:04:23.829Z,20.936991411593407
2022-08-10T06:07:21.833Z,20.994803157099522
2022-08-10T06:12:28.159Z,21.0860173193596
2022-08-10T06:15:50.700Z,21.132266788778725
2022-08-10T06:17:18.284Z,21.198429265181858
2022-08-10T06:21:18.268Z,21.327542586223352
2022-08-10T06:24:18.128Z,21.396274628079208
2022-08-10T06:27:16.848Z,21.459867872054748
2022-08-10T06:31:18.338Z,21.560075498465448
2022-08-10T06:34:51.327Z,21.63073478874612
2022-08-10T06:37:26.329Z,21.735439110977403
2022-08-10T06:41:22.456Z,21.855560169347154
2022-08-10T06:44:31.572Z,21.948702275936466
2022-08-10T06:47:22.955Z,22.00394522570432
2022-08-10T06:51:21.821Z,22.151688163594464
2022-08-10T06:54:22.168Z,22.24226112706856
2022-08-10T06:57:18.973Z,22.348893242493794
2022-08-10T07:01:20.143Z,22.481220017804663
2022-08-10T07:04:32.426Z,22.573078038413314
2022-08-10T07:07:19.767Z,22.67521398868994
2022-08-10T07:11:18.698Z,22.818461458554612
2022-08-10T07:14:18.530Z,22.94886181833317
2022-08-10T07:17:20.793Z,23.03622374055012
2022-08-10T07:21:17.887Z,23.176259938396107
2022-08-10T07:24:16.701Z,23.28225078228943
2022-08-10T07:27:16.887Z,23.41072469844594
2022-08-10T07:31:31.107Z,23.60857488508491
2022-08-10T07:34:21.689Z,23.708784884458236
2022-08-10T07:37:19.269Z,23.812849231710516
2022-08-10T07:41:19.247Z,23.935542535168132
2022-08-10T07:44:18.418Z,24.04089189145634
2022-08-10T07:47:52.990Z,24.14816849580102
2022-08-10T07:51:19.412Z,24.298484430212646
2022-08-10T07:54:19.007Z,24.35437118727459
2022-08-10T07:57:30.816Z,24.46807193719951
2022-08-10T08:01:19.083Z,24.60618320924732
2022-08-10T08:04:19.904Z,24.72438092992852
2022-08-10T08:07:21.260Z,24.812386941514795
2022-08-10T08:11:25.456Z,24.953068261393128
2022-08-10T08:14:18.469Z,25.05135260058314
2022-08-10T08:17:17.811Z,25.16762375368271
2022-08-10T08:24:10.317Z,25.301239406410605
2022-08-10T08:27:18.625Z,25.51579572192022
2022-08-10T08:31:18.203Z,25.664186763834824
2022-08-10T08:34:17.968Z,25.734206863548387
2022-08-10T08:38:28.748Z,25.817717144860943
2022-08-10T08:41:44.760Z,25.96867823303264
2022-08-10T08:44:43.164Z,26.092016840417
2022-08-10T08:48:04.216Z,26.208931716768802
2022-08-10T08:52:07.802Z,26.365674974153173
2022-08-10T08:54:33.017Z,26.47616628549158
2022-08-10T08:57:50.316Z,26.557107680334685
2022-08-10T09:01:38.050Z,26.682374267059277
2022-08-10T09:04:46.208Z,26.815349756019806
2022-08-10T09:08:01.834Z,26.92198724544005
2022-08-10T09:11:29.988Z,26.99907466522427
2022-08-10T09:14:25.858Z,27.177018375933404
2022-08-10T09:17:25.068Z,27.320272952516916
2022-08-10T09:21:22.928Z,27.533549243339895
2022-08-10T09:24:26.468Z,27.698003592982513
2022-08-10T09:51:44.829Z,29.108083393786
2022-08-10T09:54:27.428Z,29.27511024292944
2022-08-10T09:57:43.986Z,29.508305934975304
2022-08-10T10:21:54.694Z,30.800850498087765
2022-08-10T10:24:27.048Z,31.026983446894974
2022-08-10T10:27:25.900Z,31.165104701329255
2022-08-10T10:31:27.513Z,31.397020396682727
2022-08-10T10:34:34.683Z,31.61094869653207
2022-08-10T10:37:19.826Z,31.72979796989612
2022-08-10T10:41:30.522Z,31.907108526486354
2022-08-10T10:44:30.651Z,32.06835864501809
2022-08-10T10:47:33.443Z,32.241172835120324
2022-08-10T10:51:28.556Z,32.485297530586195
2022-08-10T10:54:31.670Z,32.61828152255366
2022-08-10T10:57:58.435Z,32.76539930590379
2022-08-10T11:01:34.101Z,32.97097914060296
2022-08-10T11:04:23.005Z,33.08147849416646
2022-08-10T11:07:28.461Z,33.22024531478028
2022-08-10T11:12:00.614Z,33.36672163338089
2022-08-10T11:14:29.384Z,33.53118655353474
2022-08-10T11:17:21.548Z,33.62626797144994
2022-08-10T11:21:31.514Z,33.75539897555136
2022-08-10T11:24:46.892Z,33.92693148899716
2022-08-10T11:27:24.413Z,34.09139742429261
2022-08-10T11:31:25.758Z,34.27899174557324
2022-08-10T11:34:46.978Z,34.3914200349016
2022-08-10T11:37:26.255Z,34.58094232359444
2022-08-10T12:11:25.456Z,35.70523522416197
2022-08-10T12:21:33.198Z,35.82601723275957
2022-08-10T12:31:34.437Z,36.19157652538852
2022-08-10T13:21:19.804Z,37.08909829183258
2022-08-10T13:31:19.501Z,37.28440842750433
2022-08-10T13:41:17.498Z,37.48742861926521
2022-08-10T13:51:17.989Z,37.50606024189074
2022-08-10T14:01:21.485Z,37.6936616207593
2022-08-10T14:11:18.525Z,37.89925261823264
2022-08-10T14:21:16.600Z,37.78874739921048
2022-08-10T14:31:22.058Z,36.83018451639255
2022-08-10T14:42:01.953Z,35.89347533942782
2022-08-10T14:51:25.005Z,34.73898494151372
2022-08-10T15:01:18.417Z,33.85048062835267
2022-08-10T15:12:15.253Z,33.0647750948804
2022-08-10T15:21:20.489Z,32.51613438093564
2022-08-10T15:25:02.417Z,32.372871602419764
2022-08-10T15:27:19.425Z,32.062576763305785
2022-08-10T15:31:20.091Z,31.998333657952845
2022-08-10T15:41:57.213Z,31.7259433964261
2022-08-10T15:44:17.370Z,31.71502210581675
2022-08-10T15:47:46.215Z,31.47346919067786
2022-08-10T15:51:23.117Z,31.25183210805926
2022-08-10T15:54:18.537Z,31.122062241354524
2022-08-10T15:57:19.777Z,31.15611075278175
2022-08-10T16:02:14.811Z,31.01670466427104
2022-08-10T16:04:21.208Z,31.040474350855582
2022-08-10T16:07:20.900Z,30.92291082660604
2022-08-10T16:11:22.165Z,30.7931414302192
2022-08-10T16:14:20.420Z,30.707699305191635
2022-08-10T16:17:18.739Z,30.673008540546654
2022-08-10T16:31:21.427Z,30.030589369565497
2022-08-10T16:34:19.526Z,30.003607863892103
2022-08-10T16:37:19.338Z,29.89760916926325
2022-08-10T16:41:59.606Z,29.82437377983815
2022-08-10T16:44:18.858Z,29.807670980000058
2022-08-10T16:47:17.980Z,29.74599913030479
2022-08-10T16:51:19.483Z,29.65606109129012
2022-08-10T16:54:26.793Z,29.594389344622414
2022-08-10T16:57:18.723Z,29.380465798188016
2022-08-10T17:01:21.967Z,29.434428447028402
2022-08-10T17:04:18.422Z,29.083671803120524
2022-08-10T17:07:19.172Z,29.179390972545754
2022-08-10T17:11:17.586Z,29.185815081491548
2022-08-10T17:14:22.683Z,29.392029220238328
2022-08-10T17:17:20.809Z,29.444064637697828
2022-08-10T17:21:21.844Z,29.402307818853295
2022-08-10T17:24:18.267Z,29.50766352177743
2022-08-10T17:28:04.732Z,29.50766352177743
2022-08-10T17:31:51.622Z,29.487748714898864
2022-08-10T17:34:20.223Z,29.43699809777354
2022-08-10T17:37:21.332Z,29.399095756661062
2022-08-10T17:41:23.160Z,29.329072829123835
2022-08-10T17:44:17.588Z,29.330357652995737
2022-08-10T17:47:18.442Z,29.103586521327905
2022-08-10T17:51:17.646Z,29.038060690789372
2022-08-10T17:54:28.607Z,29.08881108482019
2022-08-10T17:57:20.421Z,29.149840077252247
2022-08-10T18:01:41.210Z,29.068896369855157
2022-08-10T18:04:20.108Z,28.954547445933805
2022-08-10T18:07:20.132Z,28.989879963224304
2022-08-10T18:11:18.719Z,28.751546340428558
2022-08-10T18:14:20.286Z,28.77467302573141
2022-08-10T18:17:20.938Z,28.68152391253134
2022-08-10T18:21:20.016Z,28.528631092607974
2022-08-10T18:24:19.097Z,28.497153191069902
2022-08-10T18:27:18.993Z,28.466960112098604
2022-08-10T18:31:19.607Z,28.269099332556653
2022-08-10T18:34:19.610Z,28.10271673821053
2022-08-10T18:37:20.332Z,28.198434872980943
2022-08-10T18:41:20.120Z,28.073166193509042
2022-08-10T18:44:26.846Z,27.988369031702405
2022-08-10T18:47:25.678Z,27.90421435097378
2022-08-10T18:51:30.403Z,27.82519895842497
2022-08-10T18:54:44.380Z,27.78537008744761
2022-08-10T18:57:40.032Z,27.6421147766654
2022-08-10T19:01:41.498Z,27.583013996854426
2022-08-10T19:41:32.524Z,26.684301446667178
2022-08-10T19:51:24.213Z,26.641261111840503
2022-08-10T19:54:29.464Z,26.61171104303212
2022-08-10T19:57:34.629Z,26.489014121122544
2022-08-10T20:01:16.951Z,26.463318451679605
2022-08-10T20:04:22.230Z,26.443404312865823
2022-08-10T20:07:33.397Z,26.379807576239635
2022-08-10T20:11:44.729Z,26.33291304141785
2022-08-10T20:14:22.825Z,26.283448969305844
2022-08-10T20:17:26.795Z,26.247475115613724
2022-08-10T20:21:23.823Z,26.1562557648228
2022-08-10T20:24:25.724Z,26.12799063248176
2022-08-10T20:31:22.037Z,25.99758570409758
2022-08-10T20:34:21.487Z,25.977671667488266
2022-08-10T20:37:46.893Z,25.951333754813824
2022-08-10T20:41:24.415Z,25.88516781279477
2022-08-10T20:44:31.899Z,25.729710158273612
2022-08-10T20:47:28.078Z,25.69180936552584
2022-08-10T20:51:22.058Z,25.767610966851134
2022-08-10T20:54:17.874Z,25.693094137902154
2022-08-10T20:57:54.977Z,25.632709855878783
2022-08-10T21:02:01.593Z,25.567186531480182
2022-08-10T21:04:38.758Z,25.553696441153534
2022-08-10T21:08:00.695Z,25.54663020416374
2022-08-10T21:11:32.367Z,25.47661024918716
2022-08-10T21:14:28.785Z,25.43870956214996
2022-08-10T21:17:37.391Z,25.436782408994713
2022-08-10T21:21:41.561Z,25.381537369280796
2022-08-10T21:24:23.543Z,25.41558372698819
2022-08-10T22:51:21.849Z,24.463575294666224
2022-08-10T23:02:07.731Z,24.346662667012787
2022-08-10T23:04:24.261Z,24.304265817278065
2022-08-10T23:07:22.603Z,24.295914924968475
2022-08-10T23:11:21.499Z,24.199558530835294
2022-08-10T23:14:18.307Z,24.146241370053396
2022-08-10T23:21:18.526Z,24.112195488593805
2022-08-10T23:24:24.593Z,24.086500492176945
2022-08-10T23:27:38.570Z,24.037037644558588
2022-08-10T23:32:00.817Z,24.0447461385178
2022-08-10T23:34:22.217Z,23.938112030207776
2022-08-10T23:37:18.001Z,23.886079769836307
2022-08-10T23:41:26.815Z,23.882225529514198
2022-08-10T23:44:19.773Z,23.818630587834924
2022-08-10T23:47:21.116Z,23.797432283846227
2022-08-10T23:51:17.853Z,23.741545869795665
2022-08-10T23:54:19.971Z,23.675381539037424
2022-08-10T23:57:19.284Z,23.65867987093816
